sensor_id;sensor_type;location;lat;lon;timestamp;temperature;humidity
26595;DHT22;14238;49.496;8.154;2023-12-20T00:01:20;4.80;99.90
26595;DHT22;14238;49.496;8.154;2023-12-20T00:03:46;4.90;99.90
26595;DHT22;14238;49.496;8.154;2023-12-20T00:06:11;4.90;99.90
26595;DHT22;14238;49.496;8.154;2023-12-20T00:08:37;4.80;99.90
26595;DHT22;14238;49.496;8.154;2023-12-20T00:11:03;4.60;99.90
26595;DHT22;14238;49.496;8.154;2023-12-20T00:13:28;4.80;99.90
26595;DHT22;14238;49.496;8.154;2023-12-20T00:15:54;4.80;99.90
26595;DHT22;14238;49.496;8.154;2023-12-20T00:18:19;4.80;99.90
26595;DHT22;14238;49.496;8.154;2023-12-20T00:20:45;4.80;99.90
26595;DHT22;14238;49.496;8.154;2023-12-20T00:23:10;4.80;99.90
26595;DHT22;14238;49.496;8.154;2023-12-20T00:25:38;4.80;99.90
26595;DHT22;14238;49.496;8.154;2023-12-20T09:00:12;5.00;99.90
26595;DHT22;14238;49.496;8.154;2023-12-20T09:02:37;5.00;99.90
26595;DHT22;14238;49.496;8.154;2023-12-20T09:05:04;5.10;99.90
26595;DHT22;14238;49.496;8.154;2023-12-20T09:07:30;5.10;99.90
26595;DHT22;14238;49.496;8.154;2023-12-20T09:09:57;5.10;99.90
26595;DHT22;14238;49.496;8.154;2023-12-20T09:12:23;5.10;99.90
26595;DHT22;14238;49.496;8.154;2023-12-20T09:14:50;5.20;99.90
26595;DHT22;14238;49.496;8.154;2023-12-20T09:17:16;5.20;99.90
26595;DHT22;14238;49.496;8.154;2023-12-20T09:19:42;5.20;99.90
26595;DHT22;14238;49.496;8.154;2023-12-20T09:22:11;5.30;99.90
26595;DHT22;14238;49.496;8.154;2023-12-20T09:24:37;5.40;99.90
26595;DHT22;14238;49.496;8.154;2023-12-20T09:27:04;5.40;99.90
26595;DHT22;14238;49.496;8.154;2023-12-20T09:29:30;5.40;99.90
26595;DHT22;14238;49.496;8.154;2023-12-20T09:31:56;5.50;99.90
26595;DHT22;14238;49.496;8.154;2023-12-20T09:34:22;5.50;99.90
26595;DHT22;14238;49.496;8.154;2023-12-20T09:36:48;5.50;99.90
26595;DHT22;14238;49.496;8.154;2023-12-20T09:39:14;5.60;99.90
26595;DHT22;14238;49.496;8.154;2023-12-20T09:41:43;5.60;99.90
26595;DHT22;14238;49.496;8.154;2023-12-20T09:44:14;5.70;99.90
26595;DHT22;14238;49.496;8.154;2023-12-20T09:46:43;5.70;99.90
26595;DHT22;14238;49.496;8.154;2023-12-20T09:49:09;5.70;99.90
26595;DHT22;14238;49.496;8.154;2023-12-20T09:51:36;5.80;99.90
26595;DHT22;14238;49.496;8.154;2023-12-20T09:54:03;5.90;99.90
26595;DHT22;14238;49.496;8.154;2023-12-20T09:56:29;6.00;99.90
26595;DHT22;14238;49.496;8.154;2023-12-20T09:58:55;6.00;99.90
26595;DHT22;14238;49.496;8.154;2023-12-20T10:01:21;6.10;99.90
26595;DHT22;14238;49.496;8.154;2023-12-20T10:03:47;6.20;99.90
26595;DHT22;14238;49.496;8.154;2023-12-20T10:06:13;6.10;99.90
26595;DHT22;14238;49.496;8.154;2023-12-20T10:08:39;6.20;99.90
26595;DHT22;14238;49.496;8.154;2023-12-20T10:11:05;6.30;99.90
26595;DHT22;14238;49.496;8.154;2023-12-20T10:13:31;6.60;99.90
26595;DHT22;14238;49.496;8.154;2023-12-20T10:15:56;6.60;99.90
26595;DHT22;14238;49.496;8.154;2023-12-20T10:18:22;6.60;99.90
26595;DHT22;14238;49.496;8.154;2023-12-20T10:20:48;6.60;99.90
26595;DHT22;14238;49.496;8.154;2023-12-20T10:23:15;6.60;99.90
26595;DHT22;14238;49.496;8.154;2023-12-20T10:25:41;6.70;99.90
26595;DHT22;14238;49.496;8.154;2023-12-20T10:28:16;6.80;99.90
26595;DHT22;14238;49.496;8.154;2023-12-20T10:30:48;6.70;99.90
26595;DHT22;14238;49.496;8.154;2023-12-20T10:33:13;6.70;99.90
26595;DHT22;14238;49.496;8.154;2023-12-20T10:35:40;6.60;99.90
26595;DHT22;14238;49.496;8.154;2023-12-20T10:38:06;6.70;99.90
26595;DHT22;14238;49.496;8.154;2023-12-20T10:40:36;6.70;99.90
26595;DHT22;14238;49.496;8.154;2023-12-20T10:43:02;7.00;99.90
26595;DHT22;14238;49.496;8.154;2023-12-20T10:45:28;7.20;99.90
26595;DHT22;14238;49.496;8.154;2023-12-20T10:47:54;6.70;99.90
26595;DHT22;14238;49.496;8.154;2023-12-20T10:50:20;6.40;99.90
26595;DHT22;14238;49.496;8.154;2023-12-20T10:52:47;6.20;99.90
26595;DHT22;14238;49.496;8.154;2023-12-20T10:55:13;6.40;99.90
26595;DHT22;14238;49.496;8.154;2023-12-20T10:57:39;6.60;99.90
26595;DHT22;14238;49.496;8.154;2023-12-20T11:00:08;6.50;99.90
26595;DHT22;14238;49.496;8.154;2023-12-20T11:02:40;6.50;99.90
26595;DHT22;14238;49.496;8.154;2023-12-20T11:08:02;6.20;99.90
26595;DHT22;14238;49.496;8.154;2023-12-20T11:10:33;6.50;99.90
26595;DHT22;14238;49.496;8.154;2023-12-20T11:13:12;6.50;99.90
26595;DHT22;14238;49.496;8.154;2023-12-20T11:15:42;6.90;99.90
26595;DHT22;14238;49.496;8.154;2023-12-20T11:18:09;7.70;99.90
26595;DHT22;14238;49.496;8.154;2023-12-20T11:20:41;8.70;99.90
26595;DHT22;14238;49.496;8.154;2023-12-20T13:04:16;8.00;99.90
26595;DHT22;14238;49.496;8.154;2023-12-20T13:06:42;8.10;99.90
26595;DHT22;14238;49.496;8.154;2023-12-20T13:09:07;7.80;99.90
26595;DHT22;14238;49.496;8.154;2023-12-20T13:11:35;7.70;99.90
26595;DHT22;14238;49.496;8.154;2023-12-20T13:14:00;8.10;99.90
26595;DHT22;14238;49.496;8.154;2023-12-20T13:16:26;9.00;99.90
26595;DHT22;14238;49.496;8.154;2023-12-20T13:18:52;9.70;99.90
26595;DHT22;14238;49.496;8.154;2023-12-20T13:21:17;10.30;99.90
26595;DHT22;14238;49.496;8.154;2023-12-20T13:28:35;10.30;99.90
26595;DHT22;14238;49.496;8.154;2023-12-20T13:33:28;9.90;99.90
26595;DHT22;14238;49.496;8.154;2023-12-20T13:48:08;10.00;99.90
